createdAt,value
2018-01-19T00:00:44.163Z,48.27
2018-01-19T00:03:11.714Z,36.87
2018-01-19T00:05:39.255Z,29.20
2018-01-19T00:08:06.844Z,28.10
2018-01-19T00:10:34.383Z,81.67
2018-01-19T00:13:01.923Z,42.03
2018-01-19T00:15:29.462Z,48.77
2018-01-19T00:17:57.022Z,52.40
2018-01-19T00:20:24.662Z,48.97
2018-01-19T00:22:52.258Z,53.43
2018-01-19T00:25:19.798Z,38.20
2018-01-19T00:27:47.420Z,36.37
2018-01-19T00:30:14.966Z,34.03
2018-01-19T00:32:42.511Z,22.27
2018-01-19T00:35:10.109Z,23.20
2018-01-19T00:37:37.651Z,26.53
2018-01-19T00:40:05.203Z,32.67
2018-01-19T00:42:32.737Z,41.73
2018-01-19T00:45:00.284Z,38.50
2018-01-19T00:47:27.883Z,44.83
2018-01-19T00:49:55.471Z,31.17
2018-01-19T00:52:23.098Z,42.80
2018-01-19T00:54:50.645Z,37.77
2018-01-19T00:57:18.202Z,31.50
2018-01-19T00:59:45.750Z,23.20
2018-01-19T01:02:13.293Z,23.73
2018-01-19T01:04:40.834Z,26.93
2018-01-19T01:07:08.410Z,31.90
2018-01-19T01:09:35.954Z,39.03
2018-01-19T01:12:03.489Z,27.03
2018-01-19T01:14:31.043Z,27.93
2018-01-19T01:16:58.586Z,40.00
2018-01-19T01:19:26.139Z,66.13
2018-01-19T01:21:53.673Z,45.90
2018-01-19T01:24:21.250Z,28.70
2018-01-19T01:26:48.798Z,35.23
2018-01-19T01:29:16.330Z,22.33
2018-01-19T01:31:43.886Z,27.40
2018-01-19T01:34:11.504Z,33.13
2018-01-19T01:36:39.050Z,36.87
2018-01-19T01:39:06.678Z,44.87
2018-01-19T01:41:34.270Z,44.57
2018-01-19T01:44:01.808Z,55.67
2018-01-19T01:46:29.407Z,38.00
2018-01-19T01:49:08.702Z,27.70
2018-01-19T01:51:36.242Z,19.13
2018-01-19T01:54:03.802Z,35.70
2018-01-19T01:56:31.450Z,33.27
2018-01-19T01:58:59.054Z,32.90
2018-01-19T02:01:26.656Z,29.40
2018-01-19T02:03:54.245Z,20.17
2018-01-19T02:06:21.854Z,19.23
2018-01-19T02:08:49.435Z,21.00
2018-01-19T02:11:17.047Z,10.83
2018-01-19T02:13:44.646Z,10.53
2018-01-19T02:16:12.286Z,9.37
2018-01-19T02:18:39.825Z,12.97
2018-01-19T02:21:07.362Z,11.20
2018-01-19T02:23:34.994Z,15.00
2018-01-19T02:26:02.525Z,14.17
2018-01-19T02:28:30.105Z,10.70
2018-01-19T02:30:57.787Z,16.60
2018-01-19T02:33:25.323Z,23.20
2018-01-19T02:35:52.906Z,23.17
2018-01-19T02:38:20.455Z,35.43
2018-01-19T02:40:48.005Z,28.73
2018-01-19T02:43:15.546Z,21.70
2018-01-19T02:45:43.130Z,28.97
2018-01-19T02:48:10.726Z,29.23
2018-01-19T02:50:38.278Z,29.73
2018-01-19T02:53:05.831Z,33.50
2018-01-19T02:55:33.366Z,29.37
2018-01-19T02:58:00.978Z,37.23
2018-01-19T03:00:28.571Z,47.27
2018-01-19T03:02:56.110Z,41.20
2018-01-19T03:05:23.650Z,36.30
2018-01-19T03:07:51.278Z,33.10
2018-01-19T03:10:18.867Z,21.70
2018-01-19T03:12:46.401Z,19.47
2018-01-19T03:15:13.946Z,27.93
2018-01-19T03:17:41.548Z,15.63
2018-01-19T03:20:09.142Z,20.47
2018-01-19T03:22:36.786Z,24.40
2018-01-19T03:25:04.380Z,9.37
2018-01-19T03:27:31.978Z,11.90
2018-01-19T03:29:59.586Z,19.13
2018-01-19T03:32:27.174Z,11.63
2018-01-19T03:34:54.780Z,17.27
2018-01-19T03:37:22.314Z,9.27
2018-01-19T03:39:49.942Z,8.33
2018-01-19T03:42:17.477Z,14.57
2018-01-19T03:44:45.006Z,11.00
2018-01-19T03:47:12.708Z,10.73
2018-01-19T03:49:40.241Z,6.87
2018-01-19T03:52:07.834Z,9.57
2018-01-19T03:54:35.374Z,41.83
2018-01-19T03:57:02.954Z,34.03
2018-01-19T03:59:30.492Z,40.53
2018-01-19T04:01:58.026Z,44.23
2018-01-19T04:04:25.632Z,45.77
2018-01-19T04:06:53.234Z,62.30
2018-01-19T04:09:20.786Z,26.37
2018-01-19T04:11:48.321Z,24.83
2018-01-19T04:14:16.290Z,15.63
2018-01-19T04:16:43.823Z,12.40
2018-01-19T04:19:11.407Z,9.23
2018-01-19T04:21:39.001Z,8.77
2018-01-19T04:24:06.554Z,10.60
2018-01-19T04:26:34.141Z,13.20
2018-01-19T04:29:01.675Z,7.30
2018-01-19T04:31:29.328Z,13.80
2018-01-19T04:33:56.922Z,6.53
2018-01-19T04:36:24.926Z,17.90
2018-01-19T04:38:52.475Z,16.80
2018-01-19T04:41:20.015Z,17.83
2018-01-19T04:43:47.671Z,46.87
2018-01-19T04:46:15.209Z,53.50
2018-01-19T04:48:42.795Z,57.70
2018-01-19T04:51:10.414Z,80.30
2018-01-19T04:53:37.979Z,39.87
2018-01-19T04:56:05.531Z,35.10
2018-01-19T04:58:33.122Z,11.87
2018-01-19T05:01:00.657Z,5.30
2018-01-19T05:03:28.186Z,5.40
2018-01-19T05:05:55.762Z,5.93
2018-01-19T05:08:23.362Z,10.27
2018-01-19T05:10:50.894Z,25.40
2018-01-19T05:13:18.491Z,12.80
2018-01-19T05:15:46.080Z,11.83
2018-01-19T05:18:13.617Z,7.80
2018-01-19T05:20:41.150Z,46.47
2018-01-19T05:23:08.784Z,36.60
2018-01-19T05:25:36.310Z,42.67
2018-01-19T05:28:03.841Z,96.50
2018-01-19T05:30:31.378Z,13.23
2018-01-19T05:32:58.902Z,7.20
2018-01-19T05:35:26.434Z,5.87
2018-01-19T05:37:54.012Z,16.90
2018-01-19T05:40:21.666Z,14.77
2018-01-19T05:42:49.193Z,49.73
2018-01-19T05:45:16.717Z,42.17
2018-01-19T05:47:44.320Z,23.47
2018-01-19T05:50:11.850Z,43.37
2018-01-19T05:52:39.430Z,20.63
2018-01-19T05:55:06.961Z,24.17
2018-01-19T05:57:42.622Z,75.57
2018-01-19T06:00:10.245Z,25.60
2018-01-19T06:02:39.400Z,50.30
2018-01-19T06:05:07.741Z,49.13
2018-01-19T06:07:35.269Z,32.00
2018-01-19T06:10:02.869Z,248.73
2018-01-19T06:12:30.566Z,260.33
2018-01-19T06:14:58.106Z,127.53
2018-01-19T06:17:25.827Z,197.80
2018-01-19T06:19:53.691Z,423.37
2018-01-19T06:22:22.191Z,101.03
2018-01-19T06:24:49.782Z,31.17
2018-01-19T06:27:17.386Z,17.50
2018-01-19T06:29:44.935Z,17.10
2018-01-19T06:32:12.504Z,16.10
2018-01-19T06:34:40.038Z,23.43
2018-01-19T06:37:07.592Z,20.63
2018-01-19T06:39:35.155Z,23.87
2018-01-19T06:42:02.963Z,49.00
2018-01-19T06:44:30.563Z,51.70
2018-01-19T06:46:58.152Z,15.33
2018-01-19T06:49:25.737Z,30.03
2018-01-19T06:51:54.278Z,13.63
2018-01-19T06:54:22.610Z,27.13
2018-01-19T06:56:50.257Z,10.33
2018-01-19T06:59:20.856Z,11.60
2018-01-19T07:01:49.329Z,7.47
2018-01-19T07:04:16.962Z,10.03
2018-01-19T07:06:44.494Z,14.33
2018-01-19T07:09:12.823Z,43.73
2018-01-19T07:11:40.466Z,70.63
2018-01-19T07:14:08.138Z,7.37
2018-01-19T07:16:35.678Z,20.57
2018-01-19T07:19:03.300Z,34.07
2018-01-19T07:21:30.938Z,11.27
2018-01-19T07:23:58.969Z,66.37
2018-01-19T07:26:26.935Z,51.10
2018-01-19T07:28:54.691Z,19.07
2018-01-19T07:31:25.118Z,10.57
2018-01-19T07:33:53.728Z,97.10
2018-01-19T07:36:21.452Z,47.13
2018-01-19T07:38:49.099Z,17.00
2018-01-19T07:41:16.645Z,34.80
2018-01-19T07:43:44.347Z,24.93
2018-01-19T07:46:12.665Z,18.23
2018-01-19T07:48:41.038Z,36.53
2018-01-19T07:51:08.665Z,11.13
2018-01-19T07:53:37.111Z,3.50
2018-01-19T07:56:04.910Z,30.40
2018-01-19T07:58:32.598Z,10.87
2018-01-19T08:01:00.142Z,39.70
2018-01-19T08:03:27.762Z,20.90
2018-01-19T08:05:56.146Z,11.27
2018-01-19T08:08:27.551Z,14.50
2018-01-19T08:10:56.028Z,7.03
2018-01-19T08:13:23.630Z,7.60
2018-01-19T08:15:51.294Z,13.03
2018-01-19T08:18:18.914Z,4.30
2018-01-19T08:20:47.510Z,6.73
2018-01-19T08:23:15.200Z,9.37
2018-01-19T08:25:42.732Z,12.37
2018-01-19T08:28:10.694Z,17.17
2018-01-19T08:30:38.270Z,9.80
2018-01-19T08:33:05.874Z,6.60
2018-01-19T08:35:33.471Z,5.93
2018-01-19T08:38:01.006Z,13.00
2018-01-19T08:40:29.783Z,10.83
2018-01-19T08:42:57.310Z,4.37
2018-01-19T08:45:25.283Z,5.93
2018-01-19T08:47:52.867Z,4.30
2018-01-19T08:50:20.394Z,3.73
2018-01-19T08:52:47.998Z,3.03
2018-01-19T08:55:15.606Z,26.10
2018-01-19T08:57:43.146Z,9.53
2018-01-19T09:00:10.742Z,12.77
2018-01-19T09:02:38.265Z,10.60
2018-01-19T09:05:05.862Z,13.50
2018-01-19T09:07:36.393Z,10.60
2018-01-19T09:10:03.966Z,11.03
2018-01-19T09:12:31.502Z,25.03
2018-01-19T09:15:01.091Z,32.33
2018-01-19T09:17:30.009Z,19.40
2018-01-19T09:19:57.573Z,46.43
2018-01-19T09:22:25.190Z,39.27
2018-01-19T09:24:52.798Z,31.20
2018-01-19T09:27:21.386Z,40.53
2018-01-19T09:29:48.925Z,25.17
2018-01-19T09:32:16.608Z,32.13
2018-01-19T09:34:44.317Z,23.43
2018-01-19T09:37:11.949Z,33.33
2018-01-19T09:39:39.550Z,23.93
2018-01-19T09:42:07.111Z,18.93
2018-01-19T09:44:34.715Z,17.80
2018-01-19T09:47:02.425Z,23.43
2018-01-19T09:49:30.174Z,21.33
2018-01-19T09:51:57.762Z,21.17
2018-01-19T09:54:25.310Z,16.60
2018-01-19T09:56:53.579Z,19.13
2018-01-19T09:59:22.082Z,24.80
2018-01-19T10:01:49.629Z,32.83
2018-01-19T10:04:17.578Z,28.20
2018-01-19T10:06:46.232Z,50.17
2018-01-19T10:09:13.865Z,20.03
2018-01-19T10:11:42.114Z,21.83
2018-01-19T10:14:09.734Z,17.43
2018-01-19T10:16:37.285Z,20.97
2018-01-19T10:19:04.850Z,19.93
2018-01-19T10:21:34.206Z,15.60
2018-01-19T10:24:01.850Z,22.43
2018-01-19T10:26:30.513Z,19.57
2018-01-19T10:28:58.069Z,12.37
2018-01-19T10:31:25.694Z,14.47
2018-01-19T10:33:54.056Z,15.00
2018-01-19T10:36:21.666Z,21.40
2018-01-19T10:38:50.294Z,34.70
2018-01-19T10:41:19.382Z,20.70
2018-01-19T10:43:47.150Z,37.33
2018-01-19T10:46:21.510Z,20.30
2018-01-19T10:48:49.565Z,9.47
2018-01-19T10:51:17.178Z,10.83
2018-01-19T10:53:44.719Z,11.63
2018-01-19T10:56:13.212Z,13.73
2018-01-19T10:58:41.525Z,28.73
2018-01-19T11:01:09.952Z,9.00
2018-01-19T11:03:37.761Z,10.80
2018-01-19T11:06:06.527Z,12.27
2018-01-19T11:08:34.139Z,18.03
2018-01-19T11:11:02.694Z,20.13
2018-01-19T11:13:30.878Z,19.50
2018-01-19T11:15:58.562Z,8.07
2018-01-19T11:18:26.118Z,11.00
2018-01-19T11:20:54.135Z,10.00
2018-01-19T11:23:21.830Z,10.60
2018-01-19T11:25:49.482Z,13.30
2018-01-19T11:28:17.090Z,11.77
2018-01-19T11:30:44.622Z,10.47
2018-01-19T11:33:12.223Z,9.13
2018-01-19T11:35:39.777Z,13.13
2018-01-19T11:38:08.219Z,8.43
2018-01-19T11:40:35.755Z,7.60
2018-01-19T11:43:03.802Z,8.80
2018-01-19T11:45:32.417Z,15.23
2018-01-19T11:48:00.043Z,22.50
2018-01-19T11:50:28.396Z,25.73
2018-01-19T11:52:55.946Z,42.50
2018-01-19T11:55:24.366Z,26.10
2018-01-19T11:57:51.897Z,23.50
2018-01-19T12:00:19.484Z,36.00
2018-01-19T12:02:47.036Z,23.50
2018-01-19T12:05:15.303Z,51.37
2018-01-19T12:07:42.910Z,21.47
2018-01-19T12:10:10.506Z,19.67
2018-01-19T12:12:38.206Z,23.30
2018-01-19T12:15:05.854Z,32.37
2018-01-19T12:17:34.689Z,13.90
2018-01-19T12:20:03.174Z,15.30
2018-01-19T12:22:32.369Z,11.10
2018-01-19T12:24:59.965Z,5.70
2018-01-19T12:27:28.179Z,6.13
2018-01-19T12:29:55.766Z,11.90
2018-01-19T12:32:24.254Z,8.27
2018-01-19T12:34:51.846Z,10.47
2018-01-19T12:37:21.842Z,6.87
2018-01-19T12:39:49.411Z,9.03
2018-01-19T12:42:17.926Z,9.33
2018-01-19T12:44:45.542Z,7.23
2018-01-19T12:47:16.650Z,14.70
2018-01-19T12:49:45.330Z,7.30
2018-01-19T12:52:12.874Z,7.63
2018-01-19T12:54:41.334Z,5.20
2018-01-19T12:57:09.594Z,9.80
2018-01-19T12:59:37.835Z,43.90
2018-01-19T13:02:05.475Z,42.93
2018-01-19T13:04:33.091Z,91.03
2018-01-19T13:07:00.744Z,7.20
2018-01-19T13:09:28.533Z,7.40
2018-01-19T13:11:56.194Z,11.67
2018-01-19T13:14:23.786Z,4.90
2018-01-19T13:16:51.328Z,11.70
2018-01-19T13:19:18.867Z,6.63
2018-01-19T13:21:46.395Z,7.93
2018-01-19T13:24:14.033Z,4.40
2018-01-19T13:26:41.562Z,15.53
2018-01-19T13:29:09.182Z,8.70
2018-01-19T13:31:36.805Z,25.97
2018-01-19T13:34:04.511Z,12.17
2018-01-19T13:36:32.183Z,6.80
2018-01-19T13:39:00.592Z,9.50
2018-01-19T13:41:28.211Z,10.90
2018-01-19T13:43:55.830Z,12.43
2018-01-19T13:46:26.993Z,5.07
2018-01-19T13:48:54.578Z,6.83
2018-01-19T13:51:22.177Z,20.27
2018-01-19T13:53:49.890Z,10.63
2018-01-19T13:56:17.502Z,8.30
2018-01-19T13:58:45.162Z,14.80
2018-01-19T14:01:13.521Z,3.30
2018-01-19T14:03:41.466Z,11.30
2018-01-19T14:06:09.089Z,6.57
2018-01-19T14:08:36.947Z,24.40
2018-01-19T14:11:04.593Z,9.67
2018-01-19T14:13:32.326Z,9.77
2018-01-19T14:16:01.670Z,14.40
2018-01-19T14:18:30.769Z,8.50
2018-01-19T14:20:58.313Z,22.57
2018-01-19T14:23:27.386Z,52.40
2018-01-19T14:25:54.930Z,35.73
2018-01-19T14:28:22.824Z,17.87
2018-01-19T14:30:50.426Z,43.17
2018-01-19T14:33:18.688Z,110.50
2018-01-19T14:35:46.352Z,76.03
2018-01-19T14:38:13.985Z,162.80
2018-01-19T14:40:43.306Z,110.03
2018-01-19T14:43:10.854Z,229.73
2018-01-19T14:45:38.458Z,113.47
2018-01-19T14:48:06.842Z,193.57
2018-01-19T14:50:34.448Z,188.77
2018-01-19T14:53:02.046Z,275.10
2018-01-19T14:55:30.262Z,243.07
2018-01-19T14:57:57.935Z,325.40
2018-01-19T15:00:26.282Z,257.60
2018-01-19T15:02:53.927Z,210.87
2018-01-19T15:05:21.550Z,217.97
2018-01-19T15:07:49.169Z,169.37
2018-01-19T15:10:16.754Z,174.73
2018-01-19T15:12:44.454Z,138.83
2018-01-19T15:15:12.066Z,135.67
2018-01-19T15:17:39.658Z,161.60
2018-01-19T15:20:07.283Z,189.40
2018-01-19T15:22:34.892Z,146.17
2018-01-19T15:25:02.505Z,202.70
2018-01-19T15:27:30.138Z,257.67
2018-01-19T15:29:57.713Z,274.87
2018-01-19T15:32:26.016Z,211.23
2018-01-19T15:34:53.615Z,173.27
2018-01-19T15:37:22.349Z,150.70
2018-01-19T15:39:50.054Z,137.90
2018-01-19T15:42:18.620Z,129.37
2018-01-19T15:44:46.349Z,124.37
2018-01-19T15:47:14.629Z,143.60
2018-01-19T15:49:42.225Z,183.03
2018-01-19T15:52:09.855Z,144.30
2018-01-19T15:54:37.482Z,185.20
2018-01-19T15:57:05.367Z,202.23
2018-01-19T15:59:33.831Z,217.60
2018-01-19T16:02:01.450Z,229.90
2018-01-19T16:04:29.057Z,230.53
2018-01-19T16:06:56.658Z,210.23
2018-01-19T16:09:24.314Z,179.63
2018-01-19T16:11:52.502Z,185.33
2018-01-19T16:14:20.070Z,184.80
2018-01-19T16:16:47.623Z,195.53
2018-01-19T16:19:15.222Z,239.40
2018-01-19T16:21:42.802Z,255.60
2018-01-19T16:24:10.385Z,216.57
2018-01-19T16:26:37.922Z,204.23
2018-01-19T16:29:05.484Z,334.70
2018-01-19T16:31:33.903Z,258.53
2018-01-19T16:34:01.587Z,266.70
2018-01-19T16:36:29.132Z,207.13
2018-01-19T16:38:56.764Z,221.33
2018-01-19T16:41:24.382Z,208.90
2018-01-19T16:43:51.974Z,266.17
2018-01-19T16:46:19.622Z,250.37
2018-01-19T16:48:47.177Z,221.23
2018-01-19T16:51:14.775Z,183.27
2018-01-19T16:53:42.480Z,184.53
2018-01-19T16:56:10.019Z,170.10
2018-01-19T16:58:37.647Z,160.67
2018-01-19T17:01:05.927Z,176.40
2018-01-19T17:03:34.263Z,145.03
2018-01-19T17:06:01.802Z,163.40
2018-01-19T17:08:29.344Z,210.87
2018-01-19T17:10:56.948Z,261.40
2018-01-19T17:13:24.604Z,221.43
2018-01-19T17:15:52.215Z,207.50
2018-01-19T17:18:19.762Z,235.40
2018-01-19T17:20:47.350Z,149.63
2018-01-19T17:23:14.957Z,226.20
2018-01-19T17:25:42.558Z,213.87
2018-01-19T17:28:10.518Z,213.07
2018-01-19T17:30:38.129Z,197.93
2018-01-19T17:33:05.731Z,197.03
2018-01-19T17:35:33.302Z,164.77
2018-01-19T17:38:00.978Z,143.27
2018-01-19T17:40:28.569Z,182.23
2018-01-19T17:42:56.155Z,182.10
2018-01-19T17:45:23.762Z,203.17
2018-01-19T17:47:51.350Z,275.27
2018-01-19T17:50:18.897Z,231.60
2018-01-19T17:52:46.511Z,245.80
2018-01-19T17:55:14.158Z,231.20
2018-01-19T17:57:42.975Z,234.00
2018-01-19T18:00:10.667Z,256.67
2018-01-19T18:02:38.222Z,253.97
2018-01-19T18:05:05.875Z,227.13
2018-01-19T18:07:33.433Z,227.17
2018-01-19T18:10:00.986Z,225.53
2018-01-19T18:12:28.534Z,242.03
2018-01-19T18:14:56.081Z,216.87
2018-01-19T18:17:23.621Z,205.70
2018-01-19T18:19:51.167Z,196.07
2018-01-19T18:22:19.634Z,121.50
2018-01-19T18:24:47.247Z,149.07
2018-01-19T18:27:14.790Z,141.53
2018-01-19T18:29:42.341Z,161.50
2018-01-19T18:32:09.882Z,223.70
2018-01-19T18:34:37.435Z,163.53
2018-01-19T18:37:04.981Z,212.60
2018-01-19T18:39:32.561Z,307.60
2018-01-19T18:42:00.162Z,292.73
2018-01-19T18:44:28.585Z,230.93
2018-01-19T18:46:56.143Z,251.57
2018-01-19T18:49:23.755Z,272.93
2018-01-19T18:51:51.310Z,197.47
2018-01-19T18:54:18.851Z,191.60
2018-01-19T18:56:46.402Z,134.77
2018-01-19T18:59:14.067Z,210.60
2018-01-19T19:01:41.618Z,202.30
2018-01-19T19:04:09.343Z,156.40
2018-01-19T19:06:36.958Z,169.30
2018-01-19T19:09:04.677Z,146.90
2018-01-19T19:11:32.278Z,242.70
2018-01-19T19:13:59.830Z,276.50
2018-01-19T19:16:27.658Z,246.77
2018-01-19T19:18:55.241Z,234.83
2018-01-19T19:21:22.903Z,260.13
2018-01-19T19:23:50.550Z,311.10
2018-01-19T19:26:18.291Z,366.23
2018-01-19T19:28:45.842Z,357.43
2018-01-19T19:31:13.418Z,309.43
2018-01-19T19:33:41.029Z,328.87
2018-01-19T19:36:08.572Z,363.73
2018-01-19T19:38:36.178Z,361.30
2018-01-19T19:41:03.735Z,301.00
2018-01-19T19:43:32.404Z,287.77
2018-01-19T19:46:00.053Z,333.23
2018-01-19T19:48:27.613Z,323.90
2018-01-19T19:50:56.146Z,302.97
2018-01-19T19:53:23.757Z,298.77
2018-01-19T19:55:51.366Z,292.73
2018-01-19T19:58:19.014Z,303.30
2018-01-19T20:00:46.627Z,320.60
2018-01-19T20:03:14.175Z,259.50
2018-01-19T20:05:41.779Z,186.50
2018-01-19T20:08:09.390Z,227.67
2018-01-19T20:10:36.937Z,215.80
2018-01-19T20:13:04.543Z,226.47
2018-01-19T20:15:32.447Z,199.70
2018-01-19T20:17:59.998Z,218.30
2018-01-19T20:20:27.586Z,316.17
2018-01-19T20:22:55.181Z,282.80
2018-01-19T20:25:23.602Z,203.40
2018-01-19T20:27:51.359Z,246.17
2018-01-19T20:30:19.026Z,239.33
2018-01-19T20:32:46.732Z,230.00
2018-01-19T20:35:14.486Z,262.87
2018-01-19T20:37:42.122Z,231.27
2018-01-19T20:40:09.694Z,262.07
2018-01-19T20:42:37.238Z,249.47
2018-01-19T20:45:04.974Z,306.30
2018-01-19T20:47:32.622Z,370.13
2018-01-19T20:50:00.230Z,322.97
2018-01-19T20:52:27.856Z,246.40
2018-01-19T20:54:55.430Z,234.50
2018-01-19T20:57:23.278Z,224.40
2018-01-19T20:59:50.926Z,280.67
2018-01-19T21:02:18.685Z,251.40
2018-01-19T21:04:46.234Z,187.40
2018-01-19T21:07:14.890Z,174.90
2018-01-19T21:09:42.550Z,202.23
2018-01-19T21:12:10.356Z,207.67
2018-01-19T21:14:37.938Z,147.23
2018-01-19T21:17:05.493Z,115.73
2018-01-19T21:19:33.093Z,124.93
2018-01-19T21:22:00.699Z,204.87
2018-01-19T21:24:28.989Z,226.30
2018-01-19T21:26:56.550Z,209.47
2018-01-19T21:29:24.107Z,201.50
2018-01-19T21:31:51.675Z,126.83
2018-01-19T21:34:19.275Z,185.77
2018-01-19T21:36:46.874Z,127.87
2018-01-19T21:39:14.487Z,128.57
2018-01-19T21:41:42.086Z,113.40
2018-01-19T21:44:11.090Z,120.13
2018-01-19T21:46:39.494Z,111.70
2018-01-19T21:49:07.170Z,104.57
2018-01-19T21:51:34.709Z,118.83
2018-01-19T21:54:02.407Z,128.57
2018-01-19T21:56:30.013Z,101.67
2018-01-19T21:58:57.560Z,124.27
2018-01-19T22:01:26.091Z,127.10
2018-01-19T22:03:53.642Z,115.63
2018-01-19T22:06:21.188Z,131.73
2018-01-19T22:08:48.832Z,128.90
2018-01-19T22:11:16.479Z,123.13
2018-01-19T22:13:44.023Z,107.17
2018-01-19T22:16:11.574Z,134.17
2018-01-19T22:18:39.195Z,162.37
2018-01-19T22:21:13.750Z,166.53
2018-01-19T22:23:41.949Z,199.87
2018-01-19T22:26:09.757Z,166.20
2018-01-19T22:28:37.362Z,177.50
2018-01-19T22:31:04.907Z,174.73
2018-01-19T22:33:32.506Z,180.43
2018-01-19T22:36:00.254Z,163.00
2018-01-19T22:38:28.211Z,156.30
2018-01-19T22:40:55.818Z,173.53
2018-01-19T22:43:24.249Z,176.07
2018-01-19T22:45:51.842Z,165.53
2018-01-19T22:48:19.923Z,161.80
2018-01-19T22:50:47.542Z,136.20
2018-01-19T22:53:15.102Z,152.13
2018-01-19T22:55:42.724Z,151.20
2018-01-19T22:58:10.337Z,160.27
2018-01-19T23:00:37.946Z,150.13
2018-01-19T23:03:05.608Z,141.70
2018-01-19T23:05:33.210Z,145.57
2018-01-19T23:08:00.978Z,142.23
2018-01-19T23:10:28.594Z,136.73
2018-01-19T23:12:56.288Z,130.23
2018-01-19T23:15:23.834Z,156.50
2018-01-19T23:17:51.623Z,176.13
2018-01-19T23:20:19.305Z,159.37
2018-01-19T23:22:46.910Z,154.47
2018-01-19T23:25:14.580Z,156.50
2018-01-19T23:27:42.179Z,138.53
2018-01-19T23:30:09.743Z,138.37
2018-01-19T23:32:37.514Z,130.70
2018-01-19T23:35:05.126Z,113.20
2018-01-19T23:37:32.897Z,68.17
2018-01-19T23:40:00.498Z,106.50
2018-01-19T23:42:28.114Z,105.50
2018-01-19T23:44:55.756Z,45.70
2018-01-19T23:47:23.606Z,47.83
2018-01-19T23:49:51.161Z,38.37
2018-01-19T23:52:18.702Z,41.30
2018-01-19T23:54:46.302Z,90.07
2018-01-19T23:57:14.718Z,71.47
2018-01-19T23:59:42.312Z,52.30
